Time;durP1;ratioP1;P1;durP2;ratioP2;P2;SDS_P1;SDS_P2;PMS_P1;PMS_P2;Temp;Humidity;BMP_temperature;BMP_pressure;BME280_temperature;BME280_humidity;BME280_pressure;Samples;Min_cycle;Max_cycle;Signal;HPM_P1;HPM_P2
2022/06/08 00:00:12;;;;;;;3.37;2.37;;;;;;;21.59;60.76;99096.75;4362465;32;33936;-70
2022/06/08 00:02:42;;;;;;;3.85;2.20;;;;;;;21.56;60.76;99091.09;4363271;32;33602;-65
2022/06/08 00:05:10;;;;;;;2.95;2.30;;;;;;;21.85;60.00;99090.16;4362868;32;34475;-65
2022/06/08 00:07:38;;;;;;;3.75;2.45;;;;;;;22.15;58.79;99101.87;4362986;32;34946;-70
2022/06/08 00:10:06;;;;;;;3.33;2.65;;;;;;;21.33;61.50;99096.94;4363136;32;34040;-70
2022/06/08 00:12:34;;;;;;;3.58;2.50;;;;;;;22.05;59.21;99097.59;4362608;32;33837;-68
2022/06/08 00:15:03;;;;;;;3.30;2.70;;;;;;;21.64;60.32;99098.47;4363081;32;34016;-68
2022/06/08 00:17:31;;;;;;;3.40;2.45;;;;;;;22.05;59.04;99096.78;4362952;32;34634;-69
2022/06/08 00:19:58;;;;;;;4.93;2.60;;;;;;;21.91;59.46;99094.34;4362459;32;34218;-67
2022/06/08 00:22:26;;;;;;;3.03;2.30;;;;;;;22.01;59.40;99091.16;4362864;32;33882;-69
2022/06/08 00:24:53;;;;;;;3.20;2.58;;;;;;;21.66;61.05;99085.16;4363100;32;34723;-70
2022/06/08 00:27:21;;;;;;;4.22;2.60;;;;;;;21.95;60.80;99088.94;4362379;32;34155;-70
2022/06/08 00:29:48;;;;;;;4.20;2.87;;;;;;;21.59;61.86;99073.84;4362855;32;34361;-68
2022/06/08 00:32:17;;;;;;;3.95;2.70;;;;;;;21.46;62.49;99075.75;4363041;32;33867;-70
2022/06/08 00:34:45;;;;;;;4.72;2.50;;;;;;;21.27;62.75;99081.72;4362883;32;35142;-70
2022/06/08 00:37:12;;;;;;;3.35;2.30;;;;;;;21.22;63.46;99090.19;4362883;32;35207;-70
2022/06/08 00:39:40;;;;;;;3.20;2.47;;;;;;;21.39;62.90;99083.75;4362738;32;34214;-69
2022/06/08 00:42:09;;;;;;;3.58;2.60;;;;;;;21.90;61.24;99081.69;4362162;32;33418;-67
2022/06/08 00:44:43;;;;;;;3.33;2.35;;;;;;;21.28;62.98;99078.63;4349454;32;33934;-69
2022/06/08 00:47:15;;;;;;;3.58;2.55;;;;;;;21.23;62.93;99078.00;4362618;32;34156;-66
2022/06/08 00:49:47;;;;;;;3.58;2.60;;;;;;;21.49;61.97;99094.41;4349319;32;34348;-65
2022/06/08 00:52:15;;;;;;;4.40;2.85;;;;;;;20.92;64.56;99117.00;4363062;32;33861;-65
2022/06/08 00:54:47;;;;;;;2.83;2.30;;;;;;;21.10;63.36;99202.06;4349181;32;34159;-70
2022/06/08 00:57:20;;;;;;;3.67;2.67;;;;;;;21.45;62.33;99212.16;4362735;32;34033;-65
2022/06/08 00:59:51;;;;;;;2.55;2.28;;;;;;;21.25;62.46;99175.03;4348898;32;33989;-69
2022/06/08 01:02:18;;;;;;;3.15;2.58;;;;;;;21.52;61.97;99161.94;4349232;32;34381;-68
2022/06/08 01:04:48;;;;;;;3.45;2.47;;;;;;;21.54;61.63;99145.84;4361964;32;34190;-68
2022/06/08 01:07:20;;;;;;;3.45;2.47;;;;;;;21.62;61.46;99144.94;4362623;32;35084;-67
2022/06/08 01:09:49;;;;;;;2.87;2.20;;;;;;;21.60;61.53;99153.56;4362412;32;34293;-67
2022/06/08 01:12:19;;;;;;;3.67;2.30;;;;;;;21.10;63.04;99146.09;4348909;32;33847;-67
2022/06/08 01:14:47;;;;;;;3.40;2.42;;;;;;;21.06;63.25;99143.19;4362660;32;33741;-69
2022/06/08 01:17:18;;;;;;;3.15;2.22;;;;;;;20.94;63.96;99134.81;4362730;32;34972;-66
2022/06/08 01:20:06;;;;;;;3.35;2.37;;;;;;;21.29;62.96;99129.91;4362403;32;34889;-70
2022/06/08 01:22:34;;;;;;;3.78;2.35;;;;;;;20.72;65.97;99135.91;4362730;32;34431;-67
2022/06/08 01:25:03;;;;;;;3.37;2.30;;;;;;;20.85;65.15;99128.56;4361451;32;34877;-69
2022/06/08 01:28:11;;;;;;;3.37;2.30;;;;;;;20.60;66.34;99122.03;4362476;32;34230;-69
2022/06/08 01:30:57;;;;;;;3.78;2.40;;;;;;;20.69;66.15;99137.41;4349015;32;33991;-65
2022/06/08 01:34:00;;;;;;;3.15;2.17;;;;;;;20.57;66.72;99133.69;4348347;32;33560;-65
2022/06/08 01:36:50;;;;;;;2.80;2.10;;;;;;;20.28;68.10;99119.53;4361989;32;34129;-68
2022/06/08 01:39:57;;;;;;;3.12;2.30;;;;;;;20.92;66.53;99123.31;4361722;32;35225;-69
2022/06/08 01:42:34;;;;;;;3.65;2.55;;;;;;;20.66;67.27;99117.94;4361904;32;34829;-68
2022/06/08 01:45:37;;;;;;;3.65;3.10;;;;;;;21.00;66.56;99107.88;4362187;32;33480;-65
2022/06/08 01:48:39;;;;;;;4.57;2.60;;;;;;;20.29;69.44;99095.53;4362051;32;33950;-69
2022/06/08 01:51:25;;;;;;;3.00;2.30;;;;;;;20.48;68.55;99089.62;4362004;32;34190;-70
2022/06/08 01:54:25;;;;;;;3.75;2.60;;;;;;;20.40;69.05;99094.03;4361976;32;34857;-69
2022/06/08 01:57:16;;;;;;;3.45;2.40;;;;;;;20.23;69.74;99094.87;4329241;32;33396;-70
2022/06/08 02:00:01;;;;;;;3.65;2.45;;;;;;;20.75;68.00;99102.16;4334031;32;34220;-65
2022/06/08 02:02:40;;;;;;;4.28;2.87;;;;;;;20.38;69.38;99120.31;4348412;32;35153;-66
2022/06/08 02:05:17;;;;;;;3.45;2.53;;;;;;;20.32;69.62;99121.59;4361596;32;35074;-70
2022/06/08 02:07:50;;;;;;;3.30;2.35;;;;;;;20.36;69.50;99126.13;4347929;32;34481;-66
2022/06/08 02:10:27;;;;;;;3.40;2.53;;;;;;;20.59;68.56;99123.97;4348251;32;34061;-69
2022/06/08 02:13:12;;;;;;;3.53;2.95;;;;;;;20.96;67.20;99131.75;4361354;32;34213;-68
2022/06/08 02:15:43;;;;;;;4.70;2.60;;;;;;;21.13;66.93;99148.19;4349363;32;35095;-69
2022/06/08 02:18:16;;;;;;;3.47;2.55;;;;;;;21.01;67.04;99153.59;4350766;32;33716;-65
2022/06/08 02:20:49;;;;;;;3.85;2.30;;;;;;;20.84;67.18;99152.56;4363964;32;34713;-70
2022/06/08 02:23:35;;;;;;;3.45;2.55;;;;;;;20.60;68.22;99142.13;4350575;32;34278;-70
2022/06/08 02:26:12;;;;;;;3.83;2.70;;;;;;;20.51;68.87;99146.03;4350307;32;34286;-70
2022/06/08 02:28:45;;;;;;;3.42;2.35;;;;;;;20.64;68.29;99140.31;4350554;32;33683;-69
2022/06/08 02:31:31;;;;;;;3.28;2.40;;;;;;;20.31;69.86;99142.84;4363660;32;34917;-66
2022/06/08 02:37:02;;;;;;;3.90;2.65;;;;;;;20.31;69.81;99131.81;4363595;32;34348;-69
2022/06/08 02:39:45;;;;;;;4.07;2.65;;;;;;;20.61;68.97;99135.47;4350420;32;33484;-70
2022/06/08 02:42:18;;;;;;;3.50;2.37;;;;;;;20.39;69.82;99155.78;4363283;32;33748;-69
2022/06/08 02:44:48;;;;;;;3.08;2.40;;;;;;;20.22;70.60;99151.12;4363772;32;34231;-70
2022/06/08 02:47:31;;;;;;;3.28;2.58;;;;;;;20.55;69.79;99139.53;4350094;32;34317;-66
2022/06/08 02:50:05;;;;;;;3.95;2.70;;;;;;;20.50;69.99;99136.97;4363784;32;33795;-66
2022/06/08 02:52:36;;;;;;;4.47;2.90;;;;;;;19.66;73.13;99122.69;4363537;32;35089;-70
2022/06/08 02:55:11;;;;;;;5.20;2.65;;;;;;;19.53;74.82;99099.69;4363075;32;34219;-66
2022/06/08 02:57:46;;;;;;;4.07;2.78;;;;;;;19.97;72.30;99094.97;4350122;32;34255;-66
2022/06/08 03:00:18;;;;;;;4.65;3.00;;;;;;;19.10;75.47;99094.97;4350309;32;34397;-70
2022/06/08 03:02:56;;;;;;;4.80;2.92;;;;;;;19.32;76.01;99110.53;4350398;32;33941;-70
2022/06/08 03:05:29;;;;;;;5.28;3.50;;;;;;;19.75;73.53;99118.00;4363683;32;35073;-70
2022/06/08 03:08:14;;;;;;;4.85;3.17;;;;;;;18.99;77.20;99121.16;4363157;32;34346;-65
2022/06/08 03:10:43;;;;;;;3.95;2.97;;;;;;;18.21;80.77;99125.22;4349878;32;34489;-68
2022/06/08 03:13:18;;;;;;;3.37;2.62;;;;;;;19.14;76.87;99128.16;4363628;32;33852;-69
2022/06/08 03:16:07;;;;;;;4.55;3.20;;;;;;;19.14;76.66;99126.22;4350042;32;34022;-71
2022/06/08 03:18:35;;;;;;;4.45;3.17;;;;;;;18.58;79.04;99130.56;4349703;32;35002;-68
2022/06/08 03:21:05;;;;;;;5.05;3.20;;;;;;;19.14;76.35;99139.16;4363773;32;33640;-71
2022/06/08 03:23:33;;;;;;;4.82;2.85;;;;;;;19.00;77.24;99150.28;4363401;32;33921;-65
2022/06/08 03:26:02;;;;;;;5.20;2.87;;;;;;;19.00;76.82;99151.06;4362968;32;34344;-72
2022/06/08 03:28:31;;;;;;;4.03;2.78;;;;;;;18.93;77.70;99149.94;4362963;32;34135;-69
2022/06/08 03:30:58;;;;;;;4.15;3.22;;;;;;;19.14;76.52;99159.22;4363254;32;34537;-74
2022/06/08 03:33:26;;;;;;;5.45;3.28;;;;;;;18.68;78.65;99154.97;4363024;32;34135;-73
2022/06/08 03:35:54;;;;;;;5.80;3.40;;;;;;;18.94;77.37;99152.38;4363238;32;34993;-73
2022/06/08 03:38:21;;;;;;;4.22;2.83;;;;;;;18.74;78.93;99152.91;4363526;32;34033;-74
2022/06/08 03:40:50;;;;;;;4.75;3.12;;;;;;;18.65;79.56;99153.69;4362462;32;33484;-68
2022/06/08 03:43:17;;;;;;;5.05;3.25;;;;;;;19.10;77.32;99149.16;4363324;32;33888;-68
2022/06/08 03:45:48;;;;;;;4.70;3.30;;;;;;;19.37;75.69;99154.41;4363053;32;33978;-67
2022/06/08 03:48:17;;;;;;;4.43;3.22;;;;;;;19.25;76.24;99149.50;4349940;32;34353;-67
2022/06/08 03:50:45;;;;;;;4.85;3.55;;;;;;;19.39;75.80;99146.59;4363460;32;33783;-76
2022/06/08 03:53:18;;;;;;;4.40;3.10;;;;;;;19.37;75.64;99131.56;4349610;32;34232;-75
2022/06/08 03:55:48;;;;;;;4.78;3.17;;;;;;;19.16;76.53;99140.44;4349494;32;34422;-75
2022/06/08 03:58:16;;;;;;;5.43;3.40;;;;;;;19.24;76.46;99128.66;4362999;32;34257;-68
2022/06/08 04:00:44;;;;;;;5.62;3.95;;;;;;;18.74;78.79;99128.97;4357558;32;34430;-66
2022/06/08 04:03:12;;;;;;;5.12;3.30;;;;;;;18.50;80.44;99134.06;4341551;32;34869;-74
2022/06/08 04:05:40;;;;;;;5.10;3.47;;;;;;;18.51;81.50;99121.94;4348160;32;35062;-67
2022/06/08 04:08:09;;;;;;;5.47;3.60;;;;;;;19.11;79.02;99123.28;4361603;32;34223;-72
2022/06/08 04:10:37;;;;;;;4.85;3.08;;;;;;;19.62;76.87;99129.97;4362058;32;33690;-66
2022/06/08 04:13:05;;;;;;;4.15;3.33;;;;;;;19.38;76.15;99142.25;4361368;32;34530;-65
2022/06/08 04:15:45;;;;;;;3.83;2.92;;;;;;;19.67;74.66;99140.81;4361168;32;34352;-66
2022/06/08 04:18:19;;;;;;;4.05;2.87;;;;;;;19.12;77.13;99135.91;4361941;32;34305;-67
2022/06/08 04:20:50;;;;;;;4.93;3.60;;;;;;;19.78;74.42;99146.81;4361660;32;33475;-67
2022/06/08 04:23:20;;;;;;;4.65;3.33;;;;;;;19.86;73.79;99152.31;4361845;32;33688;-66
2022/06/08 04:25:48;;;;;;;4.22;3.10;;;;;;;19.80;73.83;99144.56;4361952;32;33932;-66
2022/06/08 04:28:17;;;;;;;4.82;3.33;;;;;;;19.72;75.04;99142.59;4361800;32;34217;-66
2022/06/08 04:30:46;;;;;;;4.90;3.47;;;;;;;19.88;74.87;99141.78;4361449;32;34428;-66
2022/06/08 04:33:14;;;;;;;5.18;3.12;;;;;;;20.25;73.53;99141.41;4349109;32;82723;-67
2022/06/08 04:35:42;;;;;;;5.55;3.50;;;;;;;20.04;76.32;99133.84;4346761;33;35731;-65
2022/06/08 04:38:10;;;;;;;4.37;3.15;;;;;;;20.67;72.71;99139.66;4346021;33;34258;-66
2022/06/08 04:40:39;;;;;;;5.20;3.33;;;;;;;21.02;72.57;99150.53;4346314;33;33773;-68
2022/06/08 04:43:07;;;;;;;5.07;3.05;;;;;;;21.11;71.99;99147.72;4346811;33;33702;-65
2022/06/08 04:45:36;;;;;;;4.47;3.22;;;;;;;21.23;72.44;99134.00;4346292;33;35060;-68
2022/06/08 04:48:08;;;;;;;4.55;3.10;;;;;;;21.53;70.66;99133.97;4346773;33;33875;-68
2022/06/08 04:50:36;;;;;;;5.47;3.12;;;;;;;22.12;66.04;99131.00;4346882;33;33382;-65
2022/06/08 04:53:04;;;;;;;4.12;2.72;;;;;;;21.64;69.64;99126.09;4346941;33;33982;-66
2022/06/08 04:55:33;;;;;;;4.20;2.90;;;;;;;22.03;67.81;99127.53;4346409;33;34196;-66
2022/06/08 04:58:01;;;;;;;3.75;2.90;;;;;;;22.05;67.78;99136.28;4346677;33;34723;-66
2022/06/08 05:00:30;;;;;;;3.45;2.92;;;;;;;22.24;66.90;99129.44;4346428;33;33845;-67
2022/06/08 05:02:58;;;;;;;4.10;3.00;;;;;;;22.66;64.85;99119.03;4346275;33;33923;-68
2022/06/08 05:05:33;;;;;;;4.40;3.08;;;;;;;22.79;63.56;99132.87;4347998;32;34149;-67
2022/06/08 05:08:03;;;;;;;3.12;2.40;;;;;;;22.82;64.33;99126.63;4360966;32;34286;-65
2022/06/08 05:10:34;;;;;;;4.72;2.83;;;;;;;22.92;65.25;99131.72;4361260;32;33526;-65
2022/06/08 05:13:03;;;;;;;3.80;2.53;;;;;;;23.24;63.91;99134.69;4361334;32;33937;-65
2022/06/08 05:15:34;;;;;;;3.78;2.60;;;;;;;23.63;61.42;99144.19;4360696;32;35066;-65
2022/06/08 05:18:02;;;;;;;5.72;2.85;;;;;;;23.44;63.28;99144.81;4361337;32;34146;-64
2022/06/08 05:20:33;;;;;;;3.30;2.53;;;;;;;23.13;64.73;99140.72;4360992;32;33936;-65
2022/06/08 05:23:02;;;;;;;3.28;2.60;;;;;;;23.18;64.41;99145.19;4360611;32;33744;-64
2022/06/08 05:25:33;;;;;;;3.03;2.33;;;;;;;23.93;62.27;99150.22;4361224;32;34566;-67
2022/06/08 05:28:03;;;;;;;2.50;2.00;;;;;;;23.58;61.91;99163.78;4354747;32;34408;-68
2022/06/08 05:30:33;;;;;;;3.10;2.40;;;;;;;23.49;61.90;99166.69;4360595;32;34656;-64
2022/06/08 05:33:03;;;;;;;4.40;2.30;;;;;;;23.64;60.60;99162.41;4361329;32;33542;-68
2022/06/08 05:35:31;;;;;;;3.35;2.12;;;;;;;23.84;61.09;99165.38;4360946;32;34863;-63
2022/06/08 05:37:59;;;;;;;2.65;1.90;;;;;;;23.69;60.93;99164.09;4360899;32;34070;-65
2022/06/08 05:40:32;;;;;;;3.08;2.42;;;;;;;22.47;65.38;99157.47;4360631;32;34615;-68
2022/06/08 05:43:01;;;;;;;3.70;2.50;;;;;;;21.59;67.43;99151.16;4360644;32;33755;-66
2022/06/08 05:45:30;;;;;;;3.65;2.70;;;;;;;22.28;66.07;99158.00;4360383;32;34215;-62
2022/06/08 05:47:58;;;;;;;5.00;2.87;;;;;;;22.69;64.65;99157.03;4360706;32;33887;-66
2022/06/08 05:50:27;;;;;;;4.45;2.65;;;;;;;22.27;67.19;99159.16;4361221;32;33494;-63
2022/06/08 05:52:55;;;;;;;3.35;2.50;;;;;;;22.25;66.25;99167.78;4362896;32;34835;-65
2022/06/08 05:55:23;;;;;;;4.60;2.72;;;;;;;22.83;64.03;99178.00;4362695;32;33714;-64
2022/06/08 05:57:52;;;;;;;3.53;2.60;;;;;;;22.82;63.72;99190.25;4362368;32;34106;-64
2022/06/08 06:00:30;;;;;;;3.50;2.85;;;;;;;22.76;64.56;99197.94;4362285;32;33667;-62
2022/06/08 06:02:58;;;;;;;4.78;2.87;;;;;;;23.45;61.05;99201.78;4361468;32;34814;-64
2022/06/08 06:05:30;;;;;;;5.05;3.03;;;;;;;22.59;64.98;99198.97;4363359;32;34153;-66
2022/06/08 06:07:59;;;;;;;5.55;2.87;;;;;;;22.28;66.62;99196.69;4362853;32;34082;-68
2022/06/08 06:10:30;;;;;;;4.05;2.67;;;;;;;22.46;65.21;99191.78;4362918;32;33522;-64
2022/06/08 06:12:58;;;;;;;4.07;3.03;;;;;;;22.43;65.11;99193.28;4363725;32;34075;-66
2022/06/08 06:15:26;;;;;;;4.95;3.05;;;;;;;22.87;63.42;99195.53;4363829;32;33465;-68
2022/06/08 06:17:55;;;;;;;4.87;3.17;;;;;;;22.80;63.66;99196.13;4363551;32;34275;-69
2022/06/08 06:20:22;;;;;;;4.00;3.17;;;;;;;22.67;64.73;99192.53;4363570;32;33689;-65
2022/06/08 06:22:51;;;;;;;3.40;2.75;;;;;;;22.76;64.62;99183.31;4363633;32;34003;-64
2022/06/08 06:25:19;;;;;;;4.03;2.97;;;;;;;22.21;66.37;99186.16;4363624;32;33944;-67
2022/06/08 06:27:47;;;;;;;4.97;4.00;;;;;;;22.60;65.01;99177.66;4361720;32;34885;-62
2022/06/08 06:30:16;;;;;;;4.10;3.10;;;;;;;22.73;64.81;99182.84;4347721;32;33640;-66
2022/06/08 06:32:45;;;;;;;4.53;3.42;;;;;;;22.82;64.42;99182.75;4348889;33;34022;-63
2022/06/08 06:35:21;;;;;;;5.03;3.35;;;;;;;22.83;64.88;99184.38;4348745;33;34226;-66
2022/06/08 06:37:50;;;;;;;3.85;2.92;;;;;;;22.75;65.00;99184.47;4348622;33;34279;-65
2022/06/08 06:40:19;;;;;;;4.20;3.22;;;;;;;22.48;65.47;99178.44;4349151;33;33744;-65
2022/06/08 06:42:48;;;;;;;4.00;2.87;;;;;;;22.93;64.36;99172.03;4348250;33;34037;-64
2022/06/08 06:45:18;;;;;;;4.72;3.33;;;;;;;22.73;64.76;99176.53;4335462;33;34207;-67
2022/06/08 06:47:46;;;;;;;4.20;3.22;;;;;;;22.64;65.92;99176.63;4348856;33;34356;-63
2022/06/08 06:50:15;;;;;;;4.80;3.22;;;;;;;23.13;63.92;99175.84;4348300;33;33641;-64
2022/06/08 06:52:47;;;;;;;4.62;3.33;;;;;;;23.10;64.43;99171.03;4347912;33;33963;-64
2022/06/08 06:55:20;;;;;;;4.25;3.17;;;;;;;22.36;66.88;99159.06;4348864;33;34231;-69
2022/06/08 06:57:48;;;;;;;;;;;;;;;21.87;68.05;99152.19;4348631;33;35122;-69
2022/06/08 07:00:17;;;;;;;5.50;3.50;;;;;;;21.46;70.42;99144.75;4348994;33;33454;-69
2022/06/08 07:02:45;;;;;;;4.15;3.10;;;;;;;22.66;66.02;99146.69;4347906;33;33997;-68
2022/06/08 07:05:21;;;;;;;4.47;3.28;;;;;;;23.24;65.02;99143.81;4346635;32;34098;-63
2022/06/08 07:07:49;;;;;;;3.85;3.03;;;;;;;23.59;64.34;99146.03;4346018;32;34223;-64
2022/06/08 07:10:18;;;;;;;5.50;2.92;;;;;;;23.30;64.07;99138.81;4347342;33;34376;-66
2022/06/08 07:12:45;;;;;;;3.47;2.30;;;;;;;23.89;62.77;99129.91;4347114;33;33576;-63
2022/06/08 07:15:15;;;;;;;3.28;2.55;;;;;;;24.24;61.81;99131.25;4347266;33;34458;-65
2022/06/08 07:17:43;;;;;;;3.50;2.55;;;;;;;23.55;63.02;99131.28;4347038;33;34304;-64
2022/06/08 07:20:12;;;;;;;5.25;2.90;;;;;;;23.88;64.21;99133.81;4347559;33;34118;-63
2022/06/08 07:22:40;;;;;;;3.50;2.75;;;;;;;24.55;61.21;99133.25;4346274;33;33557;-65
2022/06/08 07:25:08;;;;;;;4.35;2.60;;;;;;;24.43;60.71;99130.53;4347073;33;34315;-68
2022/06/08 07:27:36;;;;;;;4.00;2.72;;;;;;;24.81;59.27;99127.16;4333814;33;34282;-65
2022/06/08 07:30:05;;;;;;;5.65;3.00;;;;;;;25.45;57.88;99124.28;4347366;33;33805;-67
2022/06/08 07:32:33;;;;;;;4.35;2.80;;;;;;;24.47;59.55;99121.16;4347128;33;34104;-66
2022/06/08 07:35:02;;;;;;;3.45;2.85;;;;;;;24.17;59.65;99118.00;4351786;32;34309;-64
2022/06/08 07:37:29;;;;;;;5.03;2.97;;;;;;;23.73;62.42;99115.16;4361540;32;34969;-65
2022/06/08 07:39:57;;;;;;;5.65;3.17;;;;;;;23.99;62.20;99116.69;4361785;32;33718;-65
2022/06/08 07:42:24;;;;;;;3.55;2.95;;;;;;;24.13;60.64;99112.34;4361826;32;34093;-65
2022/06/08 07:44:52;;;;;;;4.30;3.00;;;;;;;24.36;60.71;99120.88;4361817;32;34959;-64
2022/06/08 07:47:20;;;;;;;3.55;2.80;;;;;;;24.80;58.29;99117.25;4361771;32;33954;-64
2022/06/08 07:49:51;;;;;;;4.03;3.00;;;;;;;24.56;59.37;99119.03;4346514;32;33203;-67
2022/06/08 07:52:20;;;;;;;5.20;3.28;;;;;;;25.23;60.13;99111.91;4346381;33;34816;-64
2022/06/08 07:54:49;;;;;;;5.05;3.58;;;;;;;24.71;56.93;99125.75;4348517;33;34227;-67
2022/06/08 07:57:23;;;;;;;4.32;3.33;;;;;;;24.69;58.03;99128.06;4348475;33;34385;-68
2022/06/08 07:59:51;;;;;;;4.75;3.58;;;;;;;24.80;56.48;99124.75;4351923;32;33743;-66
2022/06/08 08:02:19;;;;;;;5.57;4.12;;;;;;;25.13;56.67;99118.78;4362356;32;33872;-69
2022/06/08 08:04:47;;;;;;;5.72;3.78;;;;;;;24.63;56.72;99120.38;4362970;32;34226;-68
2022/06/08 08:07:14;;;;;;;5.00;3.65;;;;;;;24.84;55.64;99111.75;4362546;32;35088;-67
2022/06/08 08:09:42;;;;;;;5.60;3.67;;;;;;;24.70;57.67;99121.34;4363146;32;34532;-65
2022/06/08 08:12:12;;;;;;;5.50;3.80;;;;;;;24.70;57.78;99120.56;4362776;32;34198;-65
2022/06/08 08:14:39;;;;;;;5.93;4.10;;;;;;;25.38;57.08;99119.38;4358179;32;34747;-67
2022/06/08 08:17:08;;;;;;;5.70;3.85;;;;;;;24.65;55.70;99115.28;4348027;33;34221;-70
2022/06/08 08:19:38;;;;;;;5.20;3.78;;;;;;;25.31;55.28;99116.44;4347974;33;34630;-67
2022/06/08 08:22:06;;;;;;;6.60;4.22;;;;;;;25.24;56.03;99127.38;4347965;33;35104;-67
2022/06/08 08:24:34;;;;;;;6.95;4.45;;;;;;;24.86;55.93;99115.81;4347204;33;34335;-68
2022/06/08 08:27:01;;;;;;;4.90;3.95;;;;;;;24.47;56.18;99103.69;4347651;33;34056;-66
2022/06/08 08:29:29;;;;;;;5.82;3.97;;;;;;;25.30;55.89;99117.59;4347694;33;34103;-68
2022/06/08 08:31:56;;;;;;;6.60;4.37;;;;;;;25.23;55.01;99115.47;4348062;33;34834;-68
2022/06/08 08:34:25;;;;;;;5.68;4.25;;;;;;;24.93;56.42;99113.19;4347770;33;34236;-67
2022/06/08 08:36:53;;;;;;;6.55;4.43;;;;;;;25.01;56.09;99110.56;4347825;33;34232;-67
2022/06/08 08:39:20;;;;;;;5.82;4.30;;;;;;;24.18;56.49;99110.50;4348107;33;33766;-70
2022/06/08 08:44:43;;;;;;;4.97;4.00;;;;;;;25.06;54.44;99104.75;4347468;33;35057;-67
2022/06/08 08:47:17;;;;;;;6.25;4.30;;;;;;;25.71;53.70;99110.53;4334198;33;35114;-66
2022/06/08 08:50:14;;;;;;;8.20;4.12;;;;;;;25.37;56.16;99104.66;4334453;33;34661;-68
2022/06/08 08:52:49;;;;;;;6.32;4.37;;;;;;;25.98;52.82;99119.03;4348051;33;33880;-67
2022/06/08 08:55:47;;;;;;;5.40;3.92;;;;;;;25.16;54.93;99113.31;4347692;33;34267;-67
2022/06/08 08:58:21;;;;;;;6.15;4.47;;;;;;;25.22;54.89;99113.84;4347601;33;34989;-67
2022/06/08 09:00:50;;;;;;;;;;;;;;;25.57;52.88;99105.50;4347799;33;33664;-68
2022/06/08 09:03:38;;;;;;;6.25;4.57;;;;;;;25.78;54.43;99116.22;4334511;33;34231;-69
2022/06/08 09:06:18;;;;;;;6.53;4.82;;;;;;;24.97;54.85;99105.75;4334572;33;34211;-68
2022/06/08 09:08:49;;;;;;;6.30;4.82;;;;;;;25.23;54.99;99114.69;4347427;33;32726;-68
2022/06/08 09:11:23;;;;;;;7.40;5.20;;;;;;;25.04;55.63;99113.44;4347338;33;33801;-67
2022/06/08 09:13:56;;;;;;;6.72;4.95;;;;;;;24.89;56.84;99108.72;4347107;33;34665;-68
2022/06/08 09:16:38;;;;;;;6.75;4.53;;;;;;;24.80;57.41;99116.44;4347290;33;34249;-69
2022/06/08 09:19:21;;;;;;;7.20;5.15;;;;;;;24.62;58.13;99113.22;4347474;33;35073;-67
2022/06/08 09:22:16;;;;;;;9.25;5.78;;;;;;;25.44;55.23;99106.00;4345496;33;33641;-66
2022/06/08 09:24:57;;;;;;;6.35;4.72;;;;;;;25.33;54.21;99101.00;4345931;33;33844;-64
2022/06/08 09:27:33;;;;;;;6.43;4.90;;;;;;;25.52;54.61;99093.87;4351926;33;34586;-66
2022/06/08 09:30:07;;;;;;;6.68;5.12;;;;;;;25.06;56.21;99099.22;4352110;33;35000;-71
2022/06/08 09:32:44;;;;;;;5.80;4.40;;;;;;;25.23;55.21;99096.06;4352009;33;33877;-66
2022/06/08 09:35:15;;;;;;;7.03;5.37;;;;;;;25.54;54.75;99085.97;4352059;33;34664;-67
2022/06/08 09:37:43;;;;;;;7.37;4.85;;;;;;;24.86;56.92;99078.91;4351951;33;35001;-67
2022/06/08 09:43:43;;;;;;;6.07;4.47;;;;;;;25.40;55.18;99069.84;4352011;33;33596;-66
2022/06/08 09:51:25;;;;;;;6.03;4.45;;;;;;;25.57;55.01;99058.28;4338451;33;33653;-65
2022/06/08 09:52:26;;;;;;;6.57;4.85;;;;;;;25.97;52.50;99053.50;4352255;33;34216;-67
2022/06/08 09:55:00;;;;;;;5.93;4.65;;;;;;;25.95;53.27;99050.28;4338768;33;33437;-65
2022/06/08 09:57:47;;;;;;;6.87;4.82;;;;;;;26.25;51.13;99042.06;4351936;33;34051;-65
2022/06/08 10:00:39;;;;;;;5.65;4.50;;;;;;;26.30;52.83;99033.41;4337872;33;34111;-67
2022/06/08 10:03:56;;;;;;;7.12;4.20;;;;;;;25.82;53.82;99029.38;4338576;33;33142;-67
2022/06/08 10:06:36;;;;;;;5.65;4.55;;;;;;;25.98;51.91;99028.13;4305549;33;34369;-68
2022/06/08 10:09:06;;;;;;;7.57;4.70;;;;;;;25.85;53.38;99025.84;4305703;33;33660;-68
2022/06/08 10:12:08;;;;;;;5.90;4.30;;;;;;;26.52;50.83;99028.19;4335929;33;35018;-65
2022/06/08 10:14:50;;;;;;;5.78;4.12;;;;;;;26.46;51.67;99024.94;4349270;33;34953;-68
2022/06/08 10:17:25;;;;;;;5.30;3.78;;;;;;;26.63;52.27;99023.66;4351806;33;34604;-67
2022/06/08 10:20:14;;;;;;;5.35;4.55;;;;;;;27.01;50.51;99019.78;4349829;33;33618;-69
2022/06/08 10:22:48;;;;;;;4.47;3.78;;;;;;;26.34;51.15;99020.38;4351695;33;34975;-72
2022/06/08 10:25:26;;;;;;;4.57;3.60;;;;;;;26.21;51.94;99016.19;4345480;32;34060;-68
2022/06/08 10:27:56;;;;;;;4.72;3.95;;;;;;;26.19;52.08;99013.78;4352899;32;33703;-69
2022/06/08 10:30:31;;;;;;;6.62;4.20;;;;;;;26.96;48.90;99011.78;4365832;32;34011;-69
2022/06/08 10:33:19;;;;;;;4.85;4.28;;;;;;;26.95;47.47;99009.38;4346973;32;34273;-68
2022/06/08 10:35:55;;;;;;;4.72;4.03;;;;;;;26.65;48.73;99003.78;4343178;32;34439;-64
2022/06/08 10:38:28;;;;;;;4.95;3.80;;;;;;;26.63;49.14;99009.75;4348917;32;33598;-65
2022/06/08 10:44:03;;;;;;;4.85;3.80;;;;;;;26.99;46.73;99004.66;4363207;32;35357;-66
2022/06/08 10:46:38;;;;;;;4.85;3.60;;;;;;;26.82;47.59;98996.88;4362795;32;34223;-65
2022/06/08 10:49:32;;;;;;;5.32;3.55;;;;;;;26.79;46.70;98987.28;4348781;32;33722;-64
2022/06/08 10:52:23;;;;;;;4.68;3.70;;;;;;;25.89;48.55;98979.50;4362589;32;34757;-65
2022/06/08 10:55:18;;;;;;;4.15;3.47;;;;;;;26.64;43.74;98986.28;4345948;32;35107;-67
2022/06/08 10:57:52;;;;;;;5.03;3.37;;;;;;;26.90;42.48;98987.44;4362115;32;34246;-71
2022/06/08 11:00:19;;;;;;;4.77;3.43;;;;;;;26.93;41.69;98992.25;4363349;32;33771;-65
2022/06/08 11:03:03;;;;;;;4.78;3.42;;;;;;;26.72;42.35;98981.63;4358193;32;33750;-65
2022/06/08 11:05:37;;;;;;;4.07;2.92;;;;;;;27.37;42.48;98972.16;4362984;32;34424;-66
2022/06/08 11:08:13;;;;;;;;;;;;;;;27.63;40.61;98979.59;4362735;32;33567;-63
2022/06/08 11:10:44;;;;;;;6.10;3.12;;;;;;;27.91;41.04;98975.50;4360984;32;33554;-64
2022/06/08 11:13:17;;;;;;;3.95;3.00;;;;;;;28.12;39.87;98975.69;4362477;32;33919;-64
2022/06/08 11:15:48;;;;;;;3.75;3.05;;;;;;;27.62;40.69;98977.97;4362020;32;33666;-65
2022/06/08 11:18:21;;;;;;;5.10;3.20;;;;;;;27.57;40.05;98972.75;4362352;32;34141;-67
2022/06/08 11:21:14;;;;;;;4.55;3.15;;;;;;;27.67;40.29;98963.69;4361945;32;33816;-67
2022/06/08 11:23:48;;;;;;;4.72;3.62;;;;;;;28.02;39.13;98959.66;4344162;32;33907;-64
2022/06/08 11:26:17;;;;;;;3.50;2.85;;;;;;;27.80;39.02;98953.06;4357466;32;34058;-71
2022/06/08 11:28:48;;;;;;;3.53;2.90;;;;;;;27.34;40.19;98956.16;4360384;32;35059;-63
2022/06/08 11:31:27;;;;;;;3.47;2.87;;;;;;;27.16;42.02;98961.53;4362096;32;33723;-61
2022/06/08 11:34:07;;;;;;;4.03;2.70;;;;;;;27.19;39.88;98952.38;4360670;32;33803;-62
2022/06/08 11:36:50;;;;;;;4.75;3.08;;;;;;;27.56;40.92;98955.22;4348793;32;34047;-63
2022/06/08 11:39:51;;;;;;;4.28;2.75;;;;;;;27.69;40.17;98950.19;4363046;32;34858;-61
2022/06/08 11:42:31;;;;;;;3.20;2.55;;;;;;;27.65;41.08;98948.56;4341900;32;35387;-65
2022/06/08 11:45:07;;;;;;;3.80;2.62;;;;;;;27.51;39.30;98950.00;4362567;32;33949;-65
2022/06/08 11:47:43;;;;;;;3.28;2.62;;;;;;;27.78;40.80;98952.66;4349286;32;33804;-61
2022/06/08 11:50:19;;;;;;;4.00;2.90;;;;;;;27.93;40.30;98968.34;4349511;32;34486;-64
2022/06/08 11:53:05;;;;;;;5.18;2.80;;;;;;;27.31;41.08;98960.53;4362062;32;33730;-61
2022/06/08 11:55:37;;;;;;;4.20;3.10;;;;;;;27.57;40.26;98964.37;4362333;32;34858;-68
2022/06/08 11:58:08;;;;;;;3.92;3.20;;;;;;;27.79;39.22;98966.19;4349647;32;34140;-67
2022/06/08 12:00:51;;;;;;;4.45;3.15;;;;;;;28.04;39.04;98954.50;4356461;32;35146;-64
2022/06/08 12:03:41;;;;;;;3.78;2.67;;;;;;;28.16;40.72;98967.34;4361010;32;34333;-64
2022/06/08 12:06:23;;;;;;;4.62;3.67;;;;;;;27.86;41.62;98959.91;4361554;32;33823;-68
2022/06/08 12:08:55;;;;;;;4.40;2.87;;;;;;;28.15;40.58;98960.16;4345822;32;34255;-63
2022/06/08 12:11:26;;;;;;;4.57;3.30;;;;;;;28.50;40.08;98953.25;4335956;33;34577;-65
2022/06/08 12:13:59;;;;;;;4.93;3.67;;;;;;;28.43;40.78;98959.56;4333651;33;34675;-66
2022/06/08 12:16:30;;;;;;;4.05;3.53;;;;;;;28.74;45.22;98971.34;4358208;32;33963;-65
2022/06/08 12:19:14;;;;;;;5.80;4.05;;;;;;;28.12;50.58;98964.53;4361195;32;34086;-68